sensor_id;sensor_type;location;lat;lon;timestamp;pressure;altitude;pressure_sealevel;temperature;humidity
55656;BME280;41530;52.382;5.270;2023-02-23T00:01:40;101525.09;;;15.05;56.68
55656;BME280;41530;52.382;5.270;2023-02-23T00:04:07;101530.19;;;15.08;56.83
55656;BME280;41530;52.382;5.270;2023-02-23T00:06:36;101525.09;;;15.05;56.48
55656;BME280;41530;52.382;5.270;2023-02-23T00:09:04;101527.41;;;15.09;56.64
55656;BME280;41530;52.382;5.270;2023-02-23T00:11:34;101510.56;;;14.99;56.54
55656;BME280;41530;52.382;5.270;2023-02-23T00:14:00;101530.19;;;15.08;56.75
55656;BME280;41530;52.382;5.270;2023-02-23T00:16:28;101536.31;;;15.08;56.42
55656;BME280;41530;52.382;5.270;2023-02-23T00:18:57;101527.75;;;15.05;56.97
55656;BME280;41530;52.382;5.270;2023-02-23T00:21:28;101538.84;;;15.10;57.06
55656;BME280;41530;52.382;5.270;2023-02-23T00:23:57;101538.97;;;15.08;57.09
55656;BME280;41530;52.382;5.270;2023-02-23T00:26:27;101535.47;;;15.08;56.51
55656;BME280;41530;52.382;5.270;2023-02-23T00:28:57;101528.50;;;15.07;56.72
55656;BME280;41530;52.382;5.270;2023-02-23T00:31:24;101527.75;;;15.05;56.89
55656;BME280;41530;52.382;5.270;2023-02-23T00:33:57;101533.78;;;15.07;56.62
55656;BME280;41530;52.382;5.270;2023-02-23T00:36:26;101521.75;;;15.03;57.01
55656;BME280;41530;52.382;5.270;2023-02-23T00:38:55;101531.88;;;15.09;56.89
55656;BME280;41530;52.382;5.270;2023-02-23T00:41:23;101533.69;;;15.08;56.77
55656;BME280;41530;52.382;5.270;2023-02-23T00:43:57;101531.03;;;15.08;56.80
55656;BME280;41530;52.382;5.270;2023-02-23T00:46:27;101525.59;;;15.10;56.62
55656;BME280;41530;52.382;5.270;2023-02-23T00:48:57;101529.34;;;15.07;56.42
55656;BME280;41530;52.382;5.270;2023-02-23T00:51:27;101526.78;;;15.06;56.90
55656;BME280;41530;52.382;5.270;2023-02-23T00:53:59;101519.81;;;15.05;56.59
55656;BME280;41530;52.382;5.270;2023-02-23T00:56:26;101523.19;;;15.07;56.57
55656;BME280;41530;52.382;5.270;2023-02-23T00:58:54;101530.19;;;15.08;56.47
55656;BME280;41530;52.382;5.270;2023-02-23T01:01:21;101530.41;;;15.05;56.31
55656;BME280;41530;52.382;5.270;2023-02-23T01:03:48;101524.53;;;15.01;56.33
55656;BME280;41530;52.382;5.270;2023-02-23T01:06:16;101536.56;;;15.05;56.29
55656;BME280;41530;52.382;5.270;2023-02-23T01:08:45;101540.19;;;15.04;56.56
55656;BME280;41530;52.382;5.270;2023-02-23T01:11:16;101535.13;;;15.01;56.42
55656;BME280;41530;52.382;5.270;2023-02-23T01:13:44;101538.63;;;15.02;56.33
55656;BME280;41530;52.382;5.270;2023-02-23T01:16:15;101541.16;;;15.03;56.62
55656;BME280;41530;52.382;5.270;2023-02-23T01:18:43;101542.97;;;15.03;56.40
55656;BME280;41530;52.382;5.270;2023-02-23T01:21:28;101530.06;;;14.98;56.34
55656;BME280;41530;52.382;5.270;2023-02-23T01:23:55;101534.41;;;14.99;56.27
55656;BME280;41530;52.382;5.270;2023-02-23T01:26:24;101535.84;;;15.03;56.31
55656;BME280;41530;52.382;5.270;2023-02-23T01:28:56;101540.31;;;15.03;56.32
55656;BME280;41530;52.382;5.270;2023-02-23T01:31:24;101542.97;;;15.03;56.28
55656;BME280;41530;52.382;5.270;2023-02-23T01:33:55;101530.78;;;15.00;57.23
55656;BME280;41530;52.382;5.270;2023-02-23T01:36:22;101540.19;;;15.04;56.61
55656;BME280;41530;52.382;5.270;2023-02-23T01:38:52;101537.53;;;15.04;57.18
55656;BME280;41530;52.382;5.270;2023-02-23T01:41:23;101522.94;;;14.98;56.26
55656;BME280;41530;52.382;5.270;2023-02-23T01:44:04;101529.72;;;15.03;56.50
55656;BME280;41530;52.382;5.270;2023-02-23T01:46:34;101528.75;;;15.04;57.16
55656;BME280;41530;52.382;5.270;2023-02-23T01:49:02;101519.34;;;15.00;56.64
55656;BME280;41530;52.382;5.270;2023-02-23T01:51:32;101535.00;;;15.03;56.35
55656;BME280;41530;52.382;5.270;2023-02-23T01:54:04;101532.38;;;15.03;56.65
55656;BME280;41530;52.382;5.270;2023-02-23T01:56:35;101536.69;;;15.04;56.57
55656;BME280;41530;52.382;5.270;2023-02-23T01:59:09;101531.75;;;14.99;56.80
55656;BME280;41530;52.382;5.270;2023-02-23T02:01:41;101528.97;;;15.01;56.88
55656;BME280;41530;52.382;5.270;2023-02-23T02:04:09;101533.22;;;15.03;56.78
55656;BME280;41530;52.382;5.270;2023-02-23T02:06:43;101526.34;;;15.01;57.16
55656;BME280;41530;52.382;5.270;2023-02-23T02:09:14;101521.88;;;15.01;56.76
55656;BME280;41530;52.382;5.270;2023-02-23T02:11:45;101531.25;;;15.05;57.25
55656;BME280;41530;52.382;5.270;2023-02-23T02:14:20;101533.06;;;15.05;56.97
55656;BME280;41530;52.382;5.270;2023-02-23T02:17:02;101531.13;;;15.07;57.18
55656;BME280;41530;52.382;5.270;2023-02-23T02:41:19;101527.66;;;15.06;57.35
55656;BME280;41530;52.382;5.270;2023-02-23T02:46:21;101521.50;;;15.06;57.21
55656;BME280;41530;52.382;5.270;2023-02-23T02:49:25;101532.09;;;15.06;57.44
55656;BME280;41530;52.382;5.270;2023-02-23T02:52:13;101517.31;;;15.03;57.06
55656;BME280;41530;52.382;5.270;2023-02-23T02:54:50;101518.84;;;15.06;57.22
55656;BME280;41530;52.382;5.270;2023-02-23T02:57:24;101519.81;;;15.05;57.05
55656;BME280;41530;52.382;5.270;2023-02-23T02:59:52;101522.47;;;15.05;56.76
55656;BME280;41530;52.382;5.270;2023-02-23T03:02:39;101523.31;;;15.05;56.76
55656;BME280;41530;52.382;5.270;2023-02-23T03:05:29;101531.25;;;15.05;56.90
55656;BME280;41530;52.382;5.270;2023-02-23T03:08:30;101535.72;;;15.05;56.89
55656;BME280;41530;52.382;5.270;2023-02-23T03:11:17;101535.72;;;15.05;57.00
55656;BME280;41530;52.382;5.270;2023-02-23T03:17:05;101529.59;;;15.04;57.31
55656;BME280;41530;52.382;5.270;2023-02-23T03:26:05;101539.47;;;15.02;57.43
55656;BME280;41530;52.382;5.270;2023-02-23T03:29:08;101547.41;;;15.02;57.36
55656;BME280;41530;52.382;5.270;2023-02-23T03:32:20;101543.91;;;15.02;57.27
55656;BME280;41530;52.382;5.270;2023-02-23T03:38:18;101551.88;;;15.02;57.16
55656;BME280;41530;52.382;5.270;2023-02-23T03:41:06;101550.19;;;15.01;57.47
55656;BME280;41530;52.382;5.270;2023-02-23T03:43:57;101552.81;;;15.01;57.47
55656;BME280;41530;52.382;5.270;2023-02-23T03:46:45;101556.31;;;15.01;57.44
55656;BME280;41530;52.382;5.270;2023-02-23T03:49:34;101551.88;;;15.02;57.64
55656;BME280;41530;52.382;5.270;2023-02-23T03:52:34;101556.31;;;15.01;57.80
55656;BME280;41530;52.382;5.270;2023-02-23T03:55:25;101557.16;;;15.02;56.99
55656;BME280;41530;52.382;5.270;2023-02-23T03:58:16;101559.09;;;15.00;57.32
55656;BME280;41530;52.382;5.270;2023-02-23T04:01:04;101557.41;;;14.98;57.36
55656;BME280;41530;52.382;5.270;2023-02-23T04:03:51;101559.94;;;15.00;57.00
55656;BME280;41530;52.382;5.270;2023-02-23T04:06:43;101567.16;;;14.98;56.97
55656;BME280;41530;52.382;5.270;2023-02-23T04:09:30;101560.03;;;14.98;56.87
55656;BME280;41530;52.382;5.270;2023-02-23T04:12:32;101566.31;;;14.97;56.67
55656;BME280;41530;52.382;5.270;2023-02-23T04:15:50;101571.59;;;14.97;56.64
55656;BME280;41530;52.382;5.270;2023-02-23T04:18:29;101568.94;;;14.97;57.22
55656;BME280;41530;52.382;5.270;2023-02-23T04:20:58;101571.59;;;14.97;57.11
55656;BME280;41530;52.382;5.270;2023-02-23T04:23:26;101576.91;;;14.97;56.86
55656;BME280;41530;52.382;5.270;2023-02-23T04:25:53;101564.09;;;14.91;56.77
55656;BME280;41530;52.382;5.270;2023-02-23T04:28:21;101574.25;;;14.97;56.89
55656;BME280;41530;52.382;5.270;2023-02-23T04:30:48;101569.81;;;14.98;57.17
55656;BME280;41530;52.382;5.270;2023-02-23T04:33:15;101580.50;;;14.96;56.99
55656;BME280;41530;52.382;5.270;2023-02-23T04:35:42;101575.09;;;14.98;56.63
55656;BME280;41530;52.382;5.270;2023-02-23T04:38:08;101584.13;;;14.95;56.46
55656;BME280;41530;52.382;5.270;2023-02-23T04:40:35;101583.28;;;14.95;56.43
55656;BME280;41530;52.382;5.270;2023-02-23T04:43:02;101587.63;;;14.96;56.79
55656;BME280;41530;52.382;5.270;2023-02-23T04:45:29;101592.06;;;14.95;56.97
55656;BME280;41530;52.382;5.270;2023-02-23T04:47:55;101584.22;;;14.94;56.72
55656;BME280;41530;52.382;5.270;2023-02-23T04:50:22;101593.03;;;14.94;56.83
55656;BME280;41530;52.382;5.270;2023-02-23T04:52:49;101593.88;;;14.95;57.54
55656;BME280;41530;52.382;5.270;2023-02-23T04:55:18;101603.41;;;14.97;57.15
55656;BME280;41530;52.382;5.270;2023-02-23T04:57:46;101594.72;;;14.95;56.80
55656;BME280;41530;52.382;5.270;2023-02-23T05:00:13;101597.38;;;14.95;56.50
55656;BME280;41530;52.382;5.270;2023-02-23T05:02:40;101589.53;;;14.94;56.50
55656;BME280;41530;52.382;5.270;2023-02-23T05:05:08;101594.84;;;14.94;57.08
55656;BME280;41530;52.382;5.270;2023-02-23T05:07:35;101591.34;;;14.93;56.37
55656;BME280;41530;52.382;5.270;2023-02-23T05:10:03;101599.16;;;14.95;56.74
55656;BME280;41530;52.382;5.270;2023-02-23T05:12:30;101595.78;;;14.93;56.38
55656;BME280;41530;52.382;5.270;2023-02-23T05:14:57;101600.97;;;14.94;56.99
55656;BME280;41530;52.382;5.270;2023-02-23T05:17:24;101606.16;;;14.96;56.91
55656;BME280;41530;52.382;5.270;2023-02-23T05:19:51;101601.81;;;14.95;56.37
55656;BME280;41530;52.382;5.270;2023-02-23T05:22:18;101608.91;;;14.94;56.45
55656;BME280;41530;52.382;5.270;2023-02-23T05:24:45;101606.38;;;14.93;56.52
55656;BME280;41530;52.382;5.270;2023-02-23T05:27:13;101611.69;;;14.93;56.24
55656;BME280;41530;52.382;5.270;2023-02-23T05:29:40;101604.69;;;14.92;56.33
55656;BME280;41530;52.382;5.270;2023-02-23T05:32:06;101608.34;;;14.91;56.35
55656;BME280;41530;52.382;5.270;2023-02-23T05:34:33;101608.34;;;14.91;56.45
55656;BME280;41530;52.382;5.270;2023-02-23T05:37:00;101610.97;;;14.91;56.25
55656;BME280;41530;52.382;5.270;2023-02-23T05:39:27;101614.44;;;14.91;56.23
55656;BME280;41530;52.382;5.270;2023-02-23T05:41:54;101611.94;;;14.90;56.44
55656;BME280;41530;52.382;5.270;2023-02-23T05:44:20;101617.94;;;14.92;56.44
55656;BME280;41530;52.382;5.270;2023-02-23T05:46:47;101616.13;;;14.92;56.49
55656;BME280;41530;52.382;5.270;2023-02-23T05:49:13;101613.50;;;14.92;56.18
55656;BME280;41530;52.382;5.270;2023-02-23T05:51:40;101615.19;;;14.93;56.21
55656;BME280;41530;52.382;5.270;2023-02-23T05:54:06;101609.03;;;14.93;56.26
55656;BME280;41530;52.382;5.270;2023-02-23T05:56:33;101606.50;;;14.91;56.11
55656;BME280;41530;52.382;5.270;2023-02-23T05:59:00;101603.84;;;14.91;56.24
55656;BME280;41530;52.382;5.270;2023-02-23T06:01:29;101607.50;;;14.90;56.26
55656;BME280;41530;52.382;5.270;2023-02-23T06:03:56;101604.09;;;14.88;56.15
55656;BME280;41530;52.382;5.270;2023-02-23T06:06:23;101603.25;;;14.88;56.20
55656;BME280;41530;52.382;5.270;2023-02-23T06:08:51;101606.75;;;14.88;56.73
55656;BME280;41530;52.382;5.270;2023-02-23T06:11:18;101613.63;;;14.91;56.50
55656;BME280;41530;52.382;5.270;2023-02-23T06:13:45;101620.59;;;14.92;56.50
55656;BME280;41530;52.382;5.270;2023-02-23T06:16:13;101613.63;;;14.91;57.14
55656;BME280;41530;52.382;5.270;2023-02-23T06:18:39;101627.59;;;14.93;56.98
55656;BME280;41530;52.382;5.270;2023-02-23T06:21:06;101623.13;;;14.93;56.59
55656;BME280;41530;52.382;5.270;2023-02-23T06:23:33;101633.72;;;14.93;56.64
55656;BME280;41530;52.382;5.270;2023-02-23T06:26:00;101629.38;;;14.92;56.22
55656;BME280;41530;52.382;5.270;2023-02-23T06:28:27;101636.63;;;14.90;55.98
55656;BME280;41530;52.382;5.270;2023-02-23T06:30:55;101626.16;;;14.89;55.94
55656;BME280;41530;52.382;5.270;2023-02-23T06:33:24;101630.59;;;14.88;55.94
55656;BME280;41530;52.382;5.270;2023-02-23T06:35:51;101641.31;;;14.87;55.70
55656;BME280;41530;52.382;5.270;2023-02-23T06:38:18;101643.13;;;14.86;55.86
55656;BME280;41530;52.382;5.270;2023-02-23T06:40:44;101645.88;;;14.85;55.86
55656;BME280;41530;52.382;5.270;2023-02-23T06:43:11;101648.75;;;14.82;55.89
55656;BME280;41530;52.382;5.270;2023-02-23T06:45:38;101646.09;;;14.82;55.77
55656;BME280;41530;52.382;5.270;2023-02-23T06:48:05;101648.84;;;14.80;55.83
55656;BME280;41530;52.382;5.270;2023-02-23T06:50:31;101647.06;;;14.81;55.81
55656;BME280;41530;52.382;5.270;2023-02-23T06:52:58;101647.16;;;14.79;55.71
55656;BME280;41530;52.382;5.270;2023-02-23T06:55:25;101658.59;;;14.80;55.82
55656;BME280;41530;52.382;5.270;2023-02-23T06:57:51;101663.19;;;14.78;55.91
55656;BME280;41530;52.382;5.270;2023-02-23T07:00:20;101668.34;;;14.79;55.83
55656;BME280;41530;52.382;5.270;2023-02-23T07:02:47;101675.44;;;14.79;55.88
55656;BME280;41530;52.382;5.270;2023-02-23T07:05:13;101677.25;;;14.78;55.90
55656;BME280;41530;52.382;5.270;2023-02-23T07:07:40;101672.94;;;14.77;55.82
55656;BME280;41530;52.382;5.270;2023-02-23T07:10:07;101685.19;;;14.78;56.04
55656;BME280;41530;52.382;5.270;2023-02-23T07:12:34;101680.75;;;14.79;55.87
55656;BME280;41530;52.382;5.270;2023-02-23T07:15:00;101691.34;;;14.79;55.79
55656;BME280;41530;52.382;5.270;2023-02-23T07:17:27;101688.69;;;14.79;56.29
55656;BME280;41530;52.382;5.270;2023-02-23T07:19:54;101700.97;;;14.80;56.24
55656;BME280;41530;52.382;5.270;2023-02-23T07:22:20;101697.38;;;14.81;56.57
55656;BME280;41530;52.382;5.270;2023-02-23T07:24:47;101704.25;;;14.83;57.05
55656;BME280;41530;52.382;5.270;2023-02-23T07:27:14;101703.19;;;14.86;57.17
55656;BME280;41530;52.382;5.270;2023-02-23T07:29:41;101705.84;;;14.86;56.88
55656;BME280;41530;52.382;5.270;2023-02-23T07:32:07;101709.34;;;14.86;57.28
55656;BME280;41530;52.382;5.270;2023-02-23T07:34:34;101712.00;;;14.86;56.56
55656;BME280;41530;52.382;5.270;2023-02-23T07:37:02;101713.69;;;14.87;56.92
55656;BME280;41530;52.382;5.270;2023-02-23T07:39:29;101722.38;;;14.89;56.88
55656;BME280;41530;52.382;5.270;2023-02-23T07:41:56;101720.56;;;14.90;56.54
55656;BME280;41530;52.382;5.270;2023-02-23T07:44:23;101711.78;;;14.89;56.47
55656;BME280;41530;52.382;5.270;2023-02-23T07:46:50;101718.03;;;14.88;56.45
55656;BME280;41530;52.382;5.270;2023-02-23T07:49:18;101727.56;;;14.91;56.24
55656;BME280;41530;52.382;5.270;2023-02-23T07:51:44;101733.81;;;14.90;56.21
55656;BME280;41530;52.382;5.270;2023-02-23T07:54:11;101731.03;;;14.91;56.39
55656;BME280;41530;52.382;5.270;2023-02-23T07:56:38;101732.84;;;14.91;56.37
55656;BME280;41530;52.382;5.270;2023-02-23T07:59:04;101727.56;;;14.91;56.27
55656;BME280;41530;52.382;5.270;2023-02-23T08:01:31;101731.03;;;14.91;56.37
55656;BME280;41530;52.382;5.270;2023-02-23T08:03:58;101733.81;;;14.90;56.85
55656;BME280;41530;52.382;5.270;2023-02-23T08:06:24;101739.69;;;14.93;56.51
55656;BME280;41530;52.382;5.270;2023-02-23T08:08:51;101732.72;;;14.92;56.33
55656;BME280;41530;52.382;5.270;2023-02-23T08:11:17;101740.66;;;14.92;56.22
55656;BME280;41530;52.382;5.270;2023-02-23T08:13:45;101745.13;;;14.92;56.60
55656;BME280;41530;52.382;5.270;2023-02-23T08:16:11;101742.47;;;14.92;56.40
55656;BME280;41530;52.382;5.270;2023-02-23T08:18:38;101753.91;;;14.92;56.63
55656;BME280;41530;52.382;5.270;2023-02-23T08:21:04;101752.09;;;14.93;56.32
55656;BME280;41530;52.382;5.270;2023-02-23T08:23:32;101753.91;;;14.92;56.73
55656;BME280;41530;52.382;5.270;2023-02-23T08:26:00;101754.75;;;14.93;56.48
55656;BME280;41530;52.382;5.270;2023-02-23T08:28:28;101750.31;;;14.93;56.38
55656;BME280;41530;52.382;5.270;2023-02-23T08:30:55;101753.06;;;14.92;56.63
55656;BME280;41530;52.382;5.270;2023-02-23T08:33:22;101758.25;;;14.93;56.67
55656;BME280;41530;52.382;5.270;2023-02-23T08:35:49;101759.22;;;14.92;56.35
55656;BME280;41530;52.382;5.270;2023-02-23T08:38:15;101763.56;;;14.93;56.38
55656;BME280;41530;52.382;5.270;2023-02-23T08:40:43;101770.53;;;14.94;56.50
55656;BME280;41530;52.382;5.270;2023-02-23T08:43:10;101775.00;;;14.94;56.38
55656;BME280;41530;52.382;5.270;2023-02-23T08:45:37;101771.38;;;14.95;56.43
55656;BME280;41530;52.382;5.270;2023-02-23T08:48:06;101778.50;;;14.94;56.39
55656;BME280;41530;52.382;5.270;2023-02-23T08:50:34;101770.66;;;14.93;56.56
55656;BME280;41530;52.382;5.270;2023-02-23T08:53:00;101775.84;;;14.94;56.63
55656;BME280;41530;52.382;5.270;2023-02-23T08:55:27;101781.16;;;14.94;56.32
55656;BME280;41530;52.382;5.270;2023-02-23T08:57:53;101781.25;;;14.93;56.41
55656;BME280;41530;52.382;5.270;2023-02-23T09:00:20;101788.13;;;14.95;56.54
55656;BME280;41530;52.382;5.270;2023-02-23T09:02:47;101790.78;;;14.95;56.69
55656;BME280;41530;52.382;5.270;2023-02-23T09:05:14;101784.63;;;14.95;56.26
55656;BME280;41530;52.382;5.270;2023-02-23T09:07:41;101782.09;;;14.93;56.39
55656;BME280;41530;52.382;5.270;2023-02-23T09:10:14;101782.84;;;14.95;56.39
55656;BME280;41530;52.382;5.270;2023-02-23T09:12:41;101784.75;;;14.93;56.55
55656;BME280;41530;52.382;5.270;2023-02-23T09:15:08;101788.97;;;14.96;56.43
55656;BME280;41530;52.382;5.270;2023-02-23T09:17:35;101797.78;;;14.96;56.49
55656;BME280;41530;52.382;5.270;2023-02-23T09:20:02;101794.38;;;14.94;56.37
55656;BME280;41530;52.382;5.270;2023-02-23T09:22:28;101793.66;;;14.92;56.22
55656;BME280;41530;52.382;5.270;2023-02-23T09:24:55;101791.75;;;14.94;56.50
55656;BME280;41530;52.382;5.270;2023-02-23T09:27:21;101799.69;;;14.94;56.42
55656;BME280;41530;52.382;5.270;2023-02-23T09:29:48;101806.69;;;14.95;56.34
55656;BME280;41530;52.382;5.270;2023-02-23T09:32:15;101810.06;;;14.97;56.28
55656;BME280;41530;52.382;5.270;2023-02-23T09:34:41;101812.72;;;14.97;56.35
55656;BME280;41530;52.382;5.270;2023-02-23T09:37:08;101808.38;;;14.96;56.51
55656;BME280;41530;52.382;5.270;2023-02-23T09:39:34;101810.06;;;14.97;56.36
55656;BME280;41530;52.382;5.270;2023-02-23T09:44:56;101816.22;;;14.98;56.54
55656;BME280;41530;52.382;5.270;2023-02-23T09:50:21;101810.06;;;14.97;56.37
55656;BME280;41530;52.382;5.270;2023-02-23T09:52:54;101816.31;;;14.96;56.52
55656;BME280;41530;52.382;5.270;2023-02-23T09:55:24;101818.13;;;14.96;56.29
55656;BME280;41530;52.382;5.270;2023-02-23T09:57:55;101818.97;;;14.96;56.60
55656;BME280;41530;52.382;5.270;2023-02-23T10:00:24;101824.16;;;14.98;56.67
55656;BME280;41530;52.382;5.270;2023-02-23T10:05:22;101818.97;;;14.96;56.49
55656;BME280;41530;52.382;5.270;2023-02-23T10:07:55;101823.31;;;14.97;56.57
55656;BME280;41530;52.382;5.270;2023-02-23T10:13:33;101833.81;;;14.99;56.59
55656;BME280;41530;52.382;5.270;2023-02-23T10:16:21;101835.81;;;14.95;56.48
55656;BME280;41530;52.382;5.270;2023-02-23T10:21:42;101841.97;;;14.96;56.71
55656;BME280;41530;52.382;5.270;2023-02-23T10:24:16;101847.16;;;14.97;56.50
55656;BME280;41530;52.382;5.270;2023-02-23T10:29:22;101847.16;;;14.97;56.56
55656;BME280;41530;52.382;5.270;2023-02-23T10:31:59;101846.22;;;14.98;56.30
55656;BME280;41530;52.382;5.270;2023-02-23T10:34:26;101850.56;;;15.00;56.54
55656;BME280;41530;52.382;5.270;2023-02-23T10:37:02;101847.06;;;14.99;56.38
55656;BME280;41530;52.382;5.270;2023-02-23T10:39:30;101856.81;;;14.98;56.57
55656;BME280;41530;52.382;5.270;2023-02-23T10:42:01;101849.81;;;14.97;56.34
55656;BME280;41530;52.382;5.270;2023-02-23T10:44:29;101859.47;;;14.98;56.48
55656;BME280;41530;52.382;5.270;2023-02-23T10:47:06;101850.56;;;15.00;56.54
55656;BME280;41530;52.382;5.270;2023-02-23T10:49:45;101854.16;;;14.98;56.96
55656;BME280;41530;52.382;5.270;2023-02-23T10:52:38;101856.72;;;15.00;56.44
55656;BME280;41530;52.382;5.270;2023-02-23T10:55:20;101856.72;;;15.00;56.51
55656;BME280;41530;52.382;5.270;2023-02-23T10:58:09;101856.72;;;15.00;56.87
55656;BME280;41530;52.382;5.270;2023-02-23T11:00:58;101857.56;;;15.01;56.97
55656;BME280;41530;52.382;5.270;2023-02-23T11:03:32;101857.56;;;15.01;56.65
55656;BME280;41530;52.382;5.270;2023-02-23T11:06:01;101853.09;;;15.01;56.68
55656;BME280;41530;52.382;5.270;2023-02-23T11:16:06;101866.25;;;15.03;57.10
55656;BME280;41530;52.382;5.270;2023-02-23T11:18:36;101864.53;;;15.02;56.50
55656;BME280;41530;52.382;5.270;2023-02-23T11:21:09;101867.09;;;15.03;56.27
55656;BME280;41530;52.382;5.270;2023-02-23T11:23:37;101875.16;;;15.02;56.48
55656;BME280;41530;52.382;5.270;2023-02-23T11:26:39;101874.19;;;15.03;56.35
55656;BME280;41530;52.382;5.270;2023-02-23T11:29:31;101876.75;;;15.04;56.57
55656;BME280;41530;52.382;5.270;2023-02-23T11:32:31;101875.03;;;15.03;56.39
55656;BME280;41530;52.382;5.270;2023-02-23T11:37:48;101868.91;;;15.03;56.46
55656;BME280;41530;52.382;5.270;2023-02-23T11:40:27;101869.59;;;15.05;56.45
55656;BME280;41530;52.382;5.270;2023-02-23T11:43:06;101874.09;;;15.04;56.72
55656;BME280;41530;52.382;5.270;2023-02-23T11:45:43;101866.25;;;15.03;56.66
55656;BME280;41530;52.382;5.270;2023-02-23T11:48:27;101872.25;;;15.05;56.64
55656;BME280;41530;52.382;5.270;2023-02-23T11:50:57;101875.75;;;15.05;56.53
55656;BME280;41530;52.382;5.270;2023-02-23T11:53:34;101872.25;;;15.05;56.80
55656;BME280;41530;52.382;5.270;2023-02-23T11:56:03;101867.94;;;15.04;56.29
55656;BME280;41530;52.382;5.270;2023-02-23T11:58:45;101882.84;;;15.05;56.49
55656;BME280;41530;52.382;5.270;2023-02-23T12:01:15;101880.09;;;15.06;56.63
55656;BME280;41530;52.382;5.270;2023-02-23T12:03:53;101883.69;;;15.05;56.44
55656;BME280;41530;52.382;5.270;2023-02-23T12:06:38;101886.25;;;15.07;56.61
55656;BME280;41530;52.382;5.270;2023-02-23T12:09:30;101880.94;;;15.07;56.37
55656;BME280;41530;52.382;5.270;2023-02-23T12:12:02;101887.94;;;15.08;56.67
55656;BME280;41530;52.382;5.270;2023-02-23T12:14:39;101884.44;;;15.07;56.68
55656;BME280;41530;52.382;5.270;2023-02-23T12:17:18;101881.91;;;15.06;56.43
55656;BME280;41530;52.382;5.270;2023-02-23T12:19:56;101880.94;;;15.07;57.12
55656;BME280;41530;52.382;5.270;2023-02-23T12:22:26;101876.59;;;15.06;56.39
55656;BME280;41530;52.382;5.270;2023-02-23T12:25:00;101880.00;;;15.08;56.89
55656;BME280;41530;52.382;5.270;2023-02-23T12:33:03;101880.00;;;15.08;56.28
55656;BME280;41530;52.382;5.270;2023-02-23T12:35:45;101883.50;;;15.08;56.38
55656;BME280;41530;52.382;5.270;2023-02-23T12:41:04;101879.88;;;15.09;56.76
55656;BME280;41530;52.382;5.270;2023-02-23T12:43:38;101877.22;;;15.09;56.26
55656;BME280;41530;52.382;5.270;2023-02-23T12:46:20;101878.94;;;15.10;56.45
55656;BME280;41530;52.382;5.270;2023-02-23T12:51:43;101878.09;;;15.10;56.33
55656;BME280;41530;52.382;5.270;2023-02-23T12:54:11;101876.28;;;15.10;56.41
55656;BME280;41530;52.382;5.270;2023-02-23T12:56:52;101873.63;;;15.10;56.29
55656;BME280;41530;52.382;5.270;2023-02-23T13:05:00;101878.09;;;15.10;56.82
55656;BME280;41530;52.382;5.270;2023-02-23T13:07:40;101878.09;;;15.10;57.02
55656;BME280;41530;52.382;5.270;2023-02-23T13:13:40;101866.53;;;15.11;56.49
55656;BME280;41530;52.382;5.270;2023-02-23T13:21:10;101855.06;;;15.10;56.89
55656;BME280;41530;52.382;5.270;2023-02-23T13:29:35;101861.13;;;15.12;56.58
55656;BME280;41530;52.382;5.270;2023-02-23T13:32:04;101863.66;;;15.14;56.72
55656;BME280;41530;52.382;5.270;2023-02-23T13:34:39;101871.50;;;15.15;56.49
55656;BME280;41530;52.382;5.270;2023-02-23T13:37:10;101860.91;;;15.15;56.68
55656;BME280;41530;52.382;5.270;2023-02-23T13:42:16;101859.00;;;15.17;56.29
55656;BME280;41530;52.382;5.270;2023-02-23T13:44:53;101861.63;;;15.17;56.77
55656;BME280;41530;52.382;5.270;2023-02-23T13:47:35;101861.63;;;15.17;56.37
55656;BME280;41530;52.382;5.270;2023-02-23T13:52:42;101869.44;;;15.19;56.51
55656;BME280;41530;52.382;5.270;2023-02-23T13:58:12;101877.41;;;15.19;56.16
55656;BME280;41530;52.382;5.270;2023-02-23T14:00:41;101876.56;;;15.18;56.49
55656;BME280;41530;52.382;5.270;2023-02-23T14:03:21;101877.41;;;15.19;56.57
55656;BME280;41530;52.382;5.270;2023-02-23T14:05:53;101879.34;;;15.17;56.46
55656;BME280;41530;52.382;5.270;2023-02-23T14:08:30;101880.06;;;15.19;56.26
55656;BME280;41530;52.382;5.270;2023-02-23T14:11:00;101878.38;;;15.18;56.05
55656;BME280;41530;52.382;5.270;2023-02-23T14:13:33;101881.03;;;15.18;56.53
55656;BME280;41530;52.382;5.270;2023-02-23T14:19:29;101889.00;;;15.18;56.92
55656;BME280;41530;52.382;5.270;2023-02-23T14:21:48;101888.00;;;15.19;56.43
55656;BME280;41530;52.382;5.270;2023-02-23T14:24:22;101890.66;;;15.19;56.33
55656;BME280;41530;52.382;5.270;2023-02-23T14:30:12;101896.09;;;15.17;56.41
55656;BME280;41530;52.382;5.270;2023-02-23T14:32:44;101888.16;;;15.17;56.42
55656;BME280;41530;52.382;5.270;2023-02-23T14:38:04;101888.25;;;15.16;56.20
55656;BME280;41530;52.382;5.270;2023-02-23T14:40:40;101891.66;;;15.18;56.34
55656;BME280;41530;52.382;5.270;2023-02-23T14:43:53;101891.66;;;15.18;56.57
55656;BME280;41530;52.382;5.270;2023-02-23T14:46:22;101889.00;;;15.18;56.78
55656;BME280;41530;52.382;5.270;2023-02-23T14:51:35;101902.25;;;15.18;56.09
55656;BME280;41530;52.382;5.270;2023-02-23T14:54:09;101901.50;;;15.16;56.40
55656;BME280;41530;52.382;5.270;2023-02-23T14:56:44;101902.34;;;15.16;56.20
55656;BME280;41530;52.382;5.270;2023-02-23T14:59:17;101918.16;;;15.18;56.54
55656;BME280;41530;52.382;5.270;2023-02-23T15:01:47;101912.00;;;15.17;56.44
55656;BME280;41530;52.382;5.270;2023-02-23T15:04:32;101905.84;;;15.17;56.14
55656;BME280;41530;52.382;5.270;2023-02-23T15:07:04;101908.50;;;15.17;56.24
55656;BME280;41530;52.382;5.270;2023-02-23T15:09:38;101912.00;;;15.17;56.42
55656;BME280;41530;52.382;5.270;2023-02-23T15:12:26;101912.00;;;15.17;56.43